createdAt,value
2017-10-20T00:01:22.624Z,85.43
2017-10-20T00:03:50.232Z,79.33
2017-10-20T00:06:18.161Z,78.17
2017-10-20T00:08:46.034Z,88.97
2017-10-20T00:11:13.621Z,89.03
2017-10-20T00:13:41.238Z,78.03
2017-10-20T00:16:08.818Z,88.43
2017-10-20T00:18:36.440Z,76.03
2017-10-20T00:21:04.061Z,76.93
2017-10-20T00:23:31.650Z,76.27
2017-10-20T00:25:59.370Z,78.57
2017-10-20T00:28:26.966Z,71.40
2017-10-20T00:30:54.597Z,79.10
2017-10-20T00:33:22.462Z,80.27
2017-10-20T00:35:50.057Z,80.13
2017-10-20T00:38:17.666Z,73.00
2017-10-20T00:40:45.259Z,75.00
2017-10-20T00:43:12.877Z,75.03
2017-10-20T00:45:40.457Z,73.03
2017-10-20T00:48:08.341Z,90.27
2017-10-20T00:50:35.969Z,76.87
2017-10-20T00:53:03.554Z,65.43
2017-10-20T00:55:31.429Z,78.87
2017-10-20T00:57:59.032Z,70.47
2017-10-20T01:00:26.653Z,70.30
2017-10-20T01:02:54.263Z,75.97
2017-10-20T01:05:21.845Z,69.07
2017-10-20T01:07:49.473Z,75.77
2017-10-20T01:10:17.069Z,67.00
2017-10-20T01:12:44.662Z,81.90
2017-10-20T01:15:12.280Z,68.70
2017-10-20T01:17:39.924Z,69.93
2017-10-20T01:20:07.538Z,65.30
2017-10-20T01:22:35.127Z,70.17
2017-10-20T01:25:02.708Z,66.73
2017-10-20T01:27:30.637Z,66.77
2017-10-20T01:29:58.233Z,68.57
2017-10-20T01:32:25.891Z,69.87
2017-10-20T01:34:53.479Z,67.30
2017-10-20T01:37:21.105Z,71.73
2017-10-20T01:39:48.721Z,67.83
2017-10-20T01:42:16.305Z,66.80
2017-10-20T01:44:43.933Z,68.17
2017-10-20T01:47:11.512Z,68.63
2017-10-20T01:49:39.104Z,61.77
2017-10-20T01:52:06.731Z,61.77
2017-10-20T01:54:34.313Z,64.23
2017-10-20T01:57:01.943Z,63.03
2017-10-20T01:59:29.532Z,66.30
2017-10-20T02:01:57.186Z,66.97
2017-10-20T02:04:24.812Z,65.87
2017-10-20T02:06:52.405Z,66.80
2017-10-20T02:09:20.299Z,60.00
2017-10-20T02:11:47.885Z,65.20
2017-10-20T02:14:15.468Z,69.83
2017-10-20T02:16:43.085Z,66.73
2017-10-20T02:19:10.668Z,71.87
2017-10-20T02:21:38.300Z,64.10
2017-10-20T02:24:05.894Z,66.47
2017-10-20T02:26:33.497Z,71.40
2017-10-20T02:29:01.397Z,64.60
2017-10-20T02:31:28.979Z,61.47
2017-10-20T02:33:56.641Z,60.60
2017-10-20T02:36:24.249Z,69.73
2017-10-20T02:38:52.149Z,68.47
2017-10-20T02:41:19.776Z,64.30
2017-10-20T02:43:47.682Z,72.50
2017-10-20T02:46:15.313Z,78.60
2017-10-20T02:48:42.921Z,60.70
2017-10-20T02:51:10.519Z,68.67
2017-10-20T02:53:38.447Z,69.70
2017-10-20T02:56:06.034Z,77.50
2017-10-20T02:58:33.666Z,70.43
2017-10-20T03:01:01.552Z,69.10
2017-10-20T03:03:29.144Z,69.97
2017-10-20T03:05:56.752Z,63.77
2017-10-20T03:08:24.350Z,62.73
2017-10-20T03:10:51.985Z,64.27
2017-10-20T03:13:19.569Z,64.23
2017-10-20T03:15:47.148Z,63.70
2017-10-20T03:18:14.807Z,68.30
2017-10-20T03:20:42.459Z,64.70
2017-10-20T03:23:10.084Z,68.40
2017-10-20T03:25:37.694Z,61.67
2017-10-20T03:28:05.281Z,58.30
2017-10-20T03:30:32.897Z,61.40
2017-10-20T03:33:00.569Z,68.20
2017-10-20T03:35:28.188Z,61.20
2017-10-20T03:37:55.778Z,82.63
2017-10-20T03:40:23.730Z,63.20
2017-10-20T03:42:51.349Z,66.60
2017-10-20T03:45:18.937Z,61.70
2017-10-20T03:47:46.920Z,64.53
2017-10-20T03:50:14.561Z,78.63
2017-10-20T03:52:42.147Z,62.03
2017-10-20T03:55:09.814Z,63.93
2017-10-20T03:57:37.405Z,63.63
2017-10-20T04:00:05.265Z,67.30
2017-10-20T04:02:32.849Z,64.80
2017-10-20T04:05:00.446Z,67.20
2017-10-20T04:07:28.072Z,73.63
2017-10-20T04:09:55.995Z,64.83
2017-10-20T04:12:23.616Z,59.60
2017-10-20T04:14:51.211Z,63.03
2017-10-20T04:17:18.796Z,86.80
2017-10-20T04:19:46.746Z,74.83
2017-10-20T04:22:14.339Z,75.67
2017-10-20T04:24:41.969Z,64.47
2017-10-20T04:27:09.566Z,66.50
2017-10-20T04:29:37.156Z,73.20
2017-10-20T04:32:04.816Z,81.43
2017-10-20T04:34:32.401Z,61.50
2017-10-20T04:37:00.493Z,65.97
2017-10-20T04:39:28.365Z,66.23
2017-10-20T04:41:55.960Z,66.73
2017-10-20T04:44:23.600Z,63.77
2017-10-20T04:46:51.188Z,60.13
2017-10-20T04:49:18.817Z,61.33
2017-10-20T04:51:46.409Z,60.60
2017-10-20T04:54:14.008Z,69.20
2017-10-20T04:56:41.684Z,61.10
2017-10-20T04:59:09.562Z,61.67
2017-10-20T05:01:37.195Z,64.20
2017-10-20T05:04:04.789Z,61.40
2017-10-20T05:06:32.372Z,59.20
2017-10-20T05:08:59.986Z,60.43
2017-10-20T05:11:27.578Z,65.70
2017-10-20T05:13:55.206Z,69.57
2017-10-20T05:16:22.795Z,65.73
2017-10-20T05:18:50.373Z,65.97
2017-10-20T05:21:18.380Z,67.93
2017-10-20T05:23:45.978Z,84.63
2017-10-20T05:26:13.600Z,65.90
2017-10-20T05:28:41.184Z,59.63
2017-10-20T05:31:08.824Z,68.77
2017-10-20T05:33:36.442Z,67.17
2017-10-20T05:36:04.029Z,60.87
2017-10-20T05:38:31.663Z,60.97
2017-10-20T05:40:59.244Z,58.17
2017-10-20T05:43:26.821Z,67.83
2017-10-20T05:45:54.756Z,64.23
2017-10-20T05:48:22.338Z,57.00
2017-10-20T05:50:49.989Z,63.90
2017-10-20T05:53:17.582Z,66.30
2017-10-20T05:55:46.019Z,68.87
2017-10-20T05:58:13.637Z,77.80
2017-10-20T06:00:41.216Z,65.93
2017-10-20T06:03:08.897Z,68.10
2017-10-20T06:05:36.545Z,61.93
2017-10-20T06:08:04.133Z,56.73
2017-10-20T06:10:31.767Z,62.53
2017-10-20T06:12:59.430Z,73.53
2017-10-20T06:15:27.058Z,56.10
2017-10-20T06:17:54.638Z,68.70
2017-10-20T06:20:22.285Z,85.47
2017-10-20T06:22:49.902Z,66.37
2017-10-20T06:25:17.527Z,69.17
2017-10-20T06:27:45.155Z,59.33
2017-10-20T06:30:12.731Z,71.93
2017-10-20T06:32:40.340Z,61.90
2017-10-20T06:35:08.016Z,72.27
2017-10-20T06:37:35.611Z,70.87
2017-10-20T06:40:03.255Z,60.83
2017-10-20T06:42:30.842Z,65.27
2017-10-20T06:44:58.439Z,63.80
2017-10-20T06:47:26.065Z,74.50
2017-10-20T06:49:53.648Z,62.90
2017-10-20T06:52:21.257Z,63.57
2017-10-20T06:54:48.888Z,83.93
2017-10-20T06:57:17.346Z,85.53
2017-10-20T07:02:18.764Z,66.47
2017-10-20T07:04:46.401Z,68.27
2017-10-20T07:07:14.103Z,74.27
2017-10-20T07:09:41.732Z,81.93
2017-10-20T07:12:09.324Z,85.77
2017-10-20T07:14:36.944Z,72.63
2017-10-20T07:17:04.563Z,71.00
2017-10-20T07:19:40.905Z,65.50
2017-10-20T07:22:08.581Z,77.17
2017-10-20T07:24:36.162Z,59.53
2017-10-20T07:27:03.812Z,72.37
2017-10-20T07:29:31.400Z,65.60
2017-10-20T07:31:59.030Z,70.67
2017-10-20T07:34:26.678Z,62.67
2017-10-20T07:36:54.264Z,63.83
2017-10-20T07:39:21.897Z,85.83
2017-10-20T07:41:49.476Z,61.77
2017-10-20T07:44:17.248Z,65.30
2017-10-20T07:46:44.860Z,72.80
2017-10-20T07:49:12.552Z,61.80
2017-10-20T07:51:40.175Z,61.47
2017-10-20T07:54:07.787Z,71.30
2017-10-20T07:56:35.414Z,64.83
2017-10-20T07:59:03.071Z,73.90
2017-10-20T08:01:30.968Z,64.53
2017-10-20T08:03:58.593Z,63.53
2017-10-20T08:06:26.605Z,65.43
2017-10-20T08:08:54.236Z,74.20
2017-10-20T08:11:21.821Z,62.83
2017-10-20T08:13:49.702Z,63.03
2017-10-20T08:16:17.329Z,78.33
2017-10-20T08:18:44.917Z,67.33
2017-10-20T08:21:12.570Z,54.83
2017-10-20T08:23:40.169Z,67.60
2017-10-20T08:26:07.756Z,71.27
2017-10-20T08:28:35.393Z,70.97
2017-10-20T08:31:03.052Z,57.17
2017-10-20T08:33:30.997Z,60.00
2017-10-20T08:35:58.607Z,70.23
2017-10-20T08:38:26.191Z,79.33
2017-10-20T08:40:54.197Z,80.33
2017-10-20T08:43:21.799Z,61.53
2017-10-20T08:45:49.426Z,55.80
2017-10-20T08:48:17.009Z,72.83
2017-10-20T08:50:44.869Z,52.33
2017-10-20T08:53:12.720Z,60.57
2017-10-20T08:55:40.309Z,71.10
2017-10-20T08:58:07.950Z,57.03
2017-10-20T09:00:35.803Z,53.93
2017-10-20T09:03:03.406Z,55.90
2017-10-20T09:05:31.022Z,49.60
2017-10-20T09:07:58.621Z,51.13
2017-10-20T09:10:26.245Z,50.93
2017-10-20T09:12:53.832Z,55.20
2017-10-20T09:15:21.804Z,52.80
2017-10-20T09:17:49.419Z,48.83
2017-10-20T09:20:17.006Z,53.20
2017-10-20T09:22:44.984Z,49.87
2017-10-20T09:25:12.578Z,48.77
2017-10-20T09:27:40.168Z,53.67
2017-10-20T09:30:07.774Z,49.93
2017-10-20T09:32:35.627Z,55.80
2017-10-20T09:35:03.269Z,52.70
2017-10-20T09:37:30.849Z,50.83
2017-10-20T09:39:58.431Z,60.87
2017-10-20T09:42:26.064Z,51.30
2017-10-20T09:44:53.668Z,55.87
2017-10-20T09:47:21.307Z,49.37
2017-10-20T09:49:48.907Z,59.17
2017-10-20T09:52:16.541Z,51.93
2017-10-20T09:54:44.162Z,55.90
2017-10-20T09:57:11.752Z,56.37
2017-10-20T09:59:39.376Z,58.53
2017-10-20T10:02:06.969Z,56.37
2017-10-20T10:04:34.556Z,56.50
2017-10-20T10:07:02.174Z,59.40
2017-10-20T10:09:29.757Z,52.00
2017-10-20T10:11:57.376Z,57.70
2017-10-20T10:14:24.964Z,51.13
2017-10-20T10:16:52.556Z,52.90
2017-10-20T10:19:20.184Z,57.00
2017-10-20T10:21:49.843Z,47.13
2017-10-20T10:24:17.660Z,62.80
2017-10-20T10:26:45.288Z,58.77
2017-10-20T10:29:12.885Z,49.63
2017-10-20T10:31:40.493Z,51.60
2017-10-20T10:34:08.076Z,51.60
2017-10-20T10:36:35.713Z,46.70
2017-10-20T10:39:03.330Z,53.20
2017-10-20T10:41:30.927Z,49.07
2017-10-20T10:43:58.883Z,53.27
2017-10-20T10:46:26.474Z,59.03
2017-10-20T10:48:54.393Z,52.40
2017-10-20T10:51:21.982Z,50.10
2017-10-20T10:53:49.572Z,54.83
2017-10-20T10:56:17.502Z,58.17
2017-10-20T10:58:45.102Z,62.47
2017-10-20T11:01:12.840Z,51.00
2017-10-20T11:03:40.462Z,54.53
2017-10-20T11:06:19.853Z,54.97
2017-10-20T11:08:59.266Z,65.43
2017-10-20T11:11:38.688Z,50.97
2017-10-20T11:14:06.282Z,50.63
2017-10-20T11:16:33.868Z,50.13
2017-10-20T11:19:01.476Z,55.07
2017-10-20T11:21:29.094Z,52.43
2017-10-20T11:23:56.718Z,47.23
2017-10-20T11:26:24.584Z,61.27
2017-10-20T11:28:52.181Z,48.17
2017-10-20T11:31:19.805Z,53.50
2017-10-20T11:33:47.390Z,49.00
2017-10-20T11:36:15.052Z,47.20
2017-10-20T11:38:42.640Z,49.10
2017-10-20T11:41:10.361Z,46.90
2017-10-20T11:43:37.972Z,52.20
2017-10-20T11:46:05.632Z,47.47
2017-10-20T11:48:33.554Z,49.73
2017-10-20T11:51:01.149Z,53.27
2017-10-20T11:53:28.742Z,56.50
2017-10-20T11:55:56.365Z,47.20
2017-10-20T11:58:23.954Z,57.50
2017-10-20T12:00:51.870Z,45.47
2017-10-20T12:03:19.448Z,50.67
2017-10-20T12:05:47.055Z,57.50
2017-10-20T12:08:14.675Z,82.53
2017-10-20T12:10:42.285Z,47.97
2017-10-20T12:13:09.901Z,52.13
2017-10-20T12:15:37.496Z,51.83
2017-10-20T12:18:05.089Z,54.70
2017-10-20T12:20:32.771Z,51.63
2017-10-20T12:23:00.433Z,48.80
2017-10-20T12:25:28.072Z,48.47
2017-10-20T12:27:55.656Z,47.50
2017-10-20T12:30:23.240Z,53.87
2017-10-20T12:32:50.863Z,52.63
2017-10-20T12:35:18.453Z,48.17
2017-10-20T12:37:46.106Z,46.20
2017-10-20T12:40:13.745Z,57.43
2017-10-20T12:42:41.339Z,51.77
2017-10-20T12:45:08.964Z,51.47
2017-10-20T12:47:36.557Z,53.50
2017-10-20T12:50:04.228Z,54.20
2017-10-20T12:52:31.825Z,55.30
2017-10-20T12:54:59.417Z,48.40
2017-10-20T12:57:27.049Z,52.73
2017-10-20T12:59:54.640Z,49.27
2017-10-20T13:02:22.271Z,51.03
2017-10-20T13:04:49.905Z,51.20
2017-10-20T13:07:17.493Z,53.00
2017-10-20T13:09:45.113Z,49.67
2017-10-20T13:12:12.972Z,65.50
2017-10-20T13:14:40.624Z,56.73
2017-10-20T13:17:08.217Z,53.10
2017-10-20T13:19:35.819Z,53.60
2017-10-20T13:22:03.439Z,49.43
2017-10-20T13:24:31.036Z,58.97
2017-10-20T13:26:58.664Z,54.47
2017-10-20T13:29:26.273Z,52.27
2017-10-20T13:31:53.868Z,53.33
2017-10-20T13:34:21.496Z,55.13
2017-10-20T13:36:50.012Z,62.30
2017-10-20T13:39:17.985Z,52.20
2017-10-20T13:41:45.568Z,50.80
2017-10-20T13:44:13.205Z,52.17
2017-10-20T13:46:40.840Z,52.57
2017-10-20T13:49:08.436Z,49.60
2017-10-20T13:51:36.099Z,52.20
2017-10-20T13:54:03.708Z,51.00
2017-10-20T13:56:31.315Z,47.70
2017-10-20T13:58:58.929Z,46.40
2017-10-20T14:01:26.521Z,51.20
2017-10-20T14:03:54.136Z,49.83
2017-10-20T14:06:21.765Z,54.43
2017-10-20T14:08:49.400Z,50.53
2017-10-20T14:11:17.646Z,56.63
2017-10-20T14:13:45.281Z,54.33
2017-10-20T14:16:12.885Z,49.27
2017-10-20T14:18:40.542Z,58.30
2017-10-20T14:21:08.151Z,48.43
2017-10-20T14:23:35.739Z,74.80
2017-10-20T14:26:03.687Z,46.53
2017-10-20T14:28:31.296Z,50.60
2017-10-20T14:30:58.933Z,53.97
2017-10-20T14:33:26.537Z,56.43
2017-10-20T14:35:54.161Z,48.67
2017-10-20T14:38:21.773Z,59.10
2017-10-20T14:40:49.373Z,56.83
2017-10-20T14:43:17.014Z,63.07
2017-10-20T14:45:44.618Z,61.83
2017-10-20T14:48:12.207Z,56.40
2017-10-20T14:50:39.841Z,56.23
2017-10-20T14:53:07.496Z,46.93
2017-10-20T14:55:35.143Z,66.47
2017-10-20T14:58:02.993Z,52.90
2017-10-20T15:00:30.581Z,52.70
2017-10-20T15:02:58.199Z,56.80
2017-10-20T15:05:25.784Z,58.50
2017-10-20T15:07:53.403Z,57.70
2017-10-20T15:10:21.013Z,56.17
2017-10-20T15:12:48.712Z,64.23
2017-10-20T15:15:16.333Z,54.03
2017-10-20T15:17:43.924Z,54.43
2017-10-20T15:20:11.553Z,65.70
2017-10-20T15:22:39.137Z,58.67
2017-10-20T15:25:06.725Z,58.00
2017-10-20T15:27:34.339Z,61.67
2017-10-20T15:30:01.924Z,62.20
2017-10-20T15:32:29.553Z,53.67
2017-10-20T15:34:57.141Z,55.67
2017-10-20T15:37:24.725Z,52.27
2017-10-20T15:39:52.450Z,54.20
2017-10-20T15:42:20.045Z,59.40
2017-10-20T15:44:47.664Z,66.30
2017-10-20T15:47:15.257Z,60.70
2017-10-20T15:49:42.842Z,61.13
2017-10-20T15:52:10.469Z,55.90
2017-10-20T15:54:38.083Z,54.17
2017-10-20T15:57:05.714Z,51.13
2017-10-20T15:59:33.364Z,55.57
2017-10-20T16:02:01.212Z,64.57
2017-10-20T16:04:28.826Z,58.03
2017-10-20T16:06:56.899Z,56.13
2017-10-20T16:09:24.569Z,65.07
2017-10-20T16:11:52.477Z,63.90
2017-10-20T16:14:20.073Z,70.37
2017-10-20T16:16:47.730Z,65.23
2017-10-20T16:19:15.325Z,65.17
2017-10-20T16:21:42.953Z,62.13
2017-10-20T16:24:10.591Z,55.70
2017-10-20T16:26:38.221Z,59.33
2017-10-20T16:29:05.849Z,56.27
2017-10-20T16:31:33.462Z,61.10
2017-10-20T16:34:01.095Z,53.17
2017-10-20T16:36:28.676Z,61.03
2017-10-20T16:38:56.292Z,55.30
2017-10-20T16:41:23.929Z,61.00
2017-10-20T16:43:51.533Z,61.70
2017-10-20T16:46:19.464Z,56.60
2017-10-20T16:48:47.386Z,55.87
2017-10-20T16:51:15.288Z,59.33
2017-10-20T16:53:43.158Z,70.43
2017-10-20T16:56:10.745Z,65.30
2017-10-20T16:58:38.386Z,58.20
2017-10-20T17:01:05.972Z,64.83
2017-10-20T17:03:33.555Z,58.90
2017-10-20T17:06:01.181Z,59.60
2017-10-20T17:08:29.032Z,70.37
2017-10-20T17:10:56.652Z,60.03
2017-10-20T17:13:24.274Z,61.97
2017-10-20T17:15:52.131Z,59.00
2017-10-20T17:18:19.773Z,58.23
2017-10-20T17:20:47.405Z,54.60
2017-10-20T17:23:15.317Z,60.63
2017-10-20T17:25:42.900Z,57.37
2017-10-20T17:28:10.849Z,55.90
2017-10-20T17:30:38.716Z,62.20
2017-10-20T17:33:06.383Z,57.47
2017-10-20T17:35:34.012Z,62.03
2017-10-20T17:38:01.911Z,54.30
2017-10-20T17:40:29.505Z,59.57
2017-10-20T17:42:57.117Z,57.03
2017-10-20T17:45:25.001Z,50.53
2017-10-20T17:47:52.976Z,56.23
2017-10-20T17:50:20.570Z,59.30
2017-10-20T17:52:48.401Z,60.13
2017-10-20T17:55:16.016Z,57.63
2017-10-20T17:57:43.608Z,52.30
2017-10-20T18:00:11.234Z,54.63
2017-10-20T18:02:38.852Z,54.50
2017-10-20T18:05:06.716Z,51.73
2017-10-20T18:07:34.341Z,64.77
2017-10-20T18:10:02.248Z,50.37
2017-10-20T18:12:29.869Z,53.53
2017-10-20T18:14:57.474Z,58.17
2017-10-20T18:17:25.058Z,62.20
2017-10-20T18:19:52.666Z,54.60
2017-10-20T18:22:20.253Z,47.53
2017-10-20T18:24:47.884Z,54.57
2017-10-20T18:27:15.469Z,46.33
2017-10-20T18:29:43.054Z,56.00
2017-10-20T18:32:11.022Z,56.67
2017-10-20T18:34:38.603Z,59.33
2017-10-20T18:37:06.229Z,51.47
2017-10-20T18:39:33.845Z,51.77
2017-10-20T18:42:01.445Z,60.17
2017-10-20T18:44:29.430Z,62.27
2017-10-20T18:46:57.024Z,56.53
2017-10-20T18:49:24.648Z,58.00
2017-10-20T18:51:52.521Z,62.27
2017-10-20T18:54:20.120Z,65.47
2017-10-20T18:56:48.058Z,62.53
2017-10-20T18:59:15.924Z,54.70
2017-10-20T19:01:43.787Z,62.77
2017-10-20T19:04:11.391Z,56.63
2017-10-20T19:06:38.991Z,60.67
2017-10-20T19:09:06.614Z,51.23
2017-10-20T19:11:34.227Z,75.30
2017-10-20T19:14:02.102Z,54.23
2017-10-20T19:16:29.970Z,57.80
2017-10-20T19:18:57.611Z,52.67
2017-10-20T19:21:25.229Z,45.83
2017-10-20T19:23:52.849Z,43.50
2017-10-20T19:26:20.473Z,44.50
2017-10-20T19:28:48.065Z,30.37
2017-10-20T19:31:15.890Z,36.63
2017-10-20T19:33:43.507Z,56.03
2017-10-20T19:36:11.095Z,46.30
2017-10-20T19:38:38.716Z,51.23
2017-10-20T19:41:06.318Z,46.07
2017-10-20T19:43:33.905Z,50.63
2017-10-20T19:46:01.578Z,49.63
2017-10-20T19:48:29.489Z,63.70
2017-10-20T19:50:57.122Z,52.10
2017-10-20T19:53:25.132Z,50.83
2017-10-20T19:55:52.728Z,52.97
2017-10-20T19:58:20.341Z,55.30
2017-10-20T20:00:48.745Z,51.87
2017-10-20T20:03:16.697Z,52.83
2017-10-20T20:05:44.290Z,52.60
2017-10-20T20:08:11.874Z,53.07
2017-10-20T20:10:39.487Z,50.43
2017-10-20T20:13:07.085Z,46.50
2017-10-20T20:15:34.708Z,43.37
2017-10-20T20:18:02.304Z,49.70
2017-10-20T20:20:30.241Z,47.00
2017-10-20T20:22:57.866Z,52.43
2017-10-20T20:25:25.464Z,43.03
2017-10-20T20:27:53.102Z,48.37
2017-10-20T20:30:21.610Z,44.67
2017-10-20T20:32:50.975Z,43.93
2017-10-20T20:35:18.614Z,45.97
2017-10-20T20:37:46.236Z,40.60
2017-10-20T20:40:13.818Z,39.40
2017-10-20T20:42:41.467Z,40.80
2017-10-20T20:45:09.057Z,33.27
2017-10-20T20:47:36.821Z,37.53
2017-10-20T20:50:04.444Z,31.63
2017-10-20T20:52:32.313Z,38.10
2017-10-20T20:55:00.288Z,41.53
2017-10-20T20:57:27.866Z,35.60
2017-10-20T20:59:55.453Z,33.70
2017-10-20T21:02:23.085Z,30.40
2017-10-20T21:04:50.675Z,37.00
2017-10-20T21:07:18.320Z,28.23
2017-10-20T21:09:46.265Z,28.57
2017-10-20T21:12:13.892Z,32.97
2017-10-20T21:14:41.516Z,34.70
2017-10-20T21:17:09.093Z,30.40
2017-10-20T21:19:36.913Z,33.70
2017-10-20T21:22:04.778Z,35.80
2017-10-20T21:24:32.365Z,30.20
2017-10-20T21:26:59.978Z,34.37
2017-10-20T21:29:27.566Z,32.20
2017-10-20T21:31:55.198Z,27.17
2017-10-20T21:34:22.802Z,37.60
2017-10-20T21:36:50.386Z,29.53
2017-10-20T21:39:18.018Z,32.20
2017-10-20T21:41:45.597Z,35.87
2017-10-20T21:44:13.218Z,30.90
2017-10-20T21:46:41.049Z,28.23
2017-10-20T21:49:08.636Z,29.47
2017-10-20T21:51:36.277Z,30.90
2017-10-20T21:54:03.868Z,31.00
2017-10-20T21:56:32.254Z,32.20
2017-10-20T21:59:00.137Z,34.87
2017-10-20T22:01:27.718Z,37.77
2017-10-20T22:03:55.339Z,37.33
2017-10-20T22:06:22.921Z,34.13
2017-10-20T22:08:50.724Z,40.27
2017-10-20T22:11:18.319Z,35.77
2017-10-20T22:13:45.905Z,30.83
2017-10-20T22:16:13.511Z,39.47
2017-10-20T22:18:41.445Z,36.90
2017-10-20T22:21:09.058Z,28.10
2017-10-20T22:23:36.646Z,40.17
2017-10-20T22:26:04.272Z,35.00
2017-10-20T22:28:32.193Z,29.43
2017-10-20T22:30:59.800Z,31.70
2017-10-20T22:33:27.450Z,31.27
2017-10-20T22:35:55.037Z,35.07
2017-10-20T22:38:22.661Z,30.57
2017-10-20T22:40:50.964Z,28.87
2017-10-20T22:43:18.562Z,30.07
2017-10-20T22:45:46.192Z,34.30
2017-10-20T22:48:13.785Z,32.97
2017-10-20T22:50:41.415Z,32.07
2017-10-20T22:53:09.349Z,32.20
2017-10-20T22:55:36.958Z,29.47
2017-10-20T22:58:04.586Z,31.37
2017-10-20T23:00:32.207Z,34.20
2017-10-20T23:02:59.850Z,37.37
2017-10-20T23:05:27.447Z,32.23
2017-10-20T23:07:55.313Z,28.77
2017-10-20T23:10:22.929Z,32.40
2017-10-20T23:12:50.514Z,31.20
2017-10-20T23:15:18.156Z,28.23
2017-10-20T23:17:45.753Z,36.10
2017-10-20T23:20:13.349Z,45.30
2017-10-20T23:22:40.961Z,31.73
2017-10-20T23:25:08.540Z,34.13
2017-10-20T23:27:36.520Z,33.03
2017-10-20T23:30:04.113Z,30.03
2017-10-20T23:32:31.696Z,29.77
2017-10-20T23:34:59.304Z,30.80
2017-10-20T23:37:26.890Z,31.23
2017-10-20T23:39:54.529Z,35.83
2017-10-20T23:42:22.114Z,34.07
2017-10-20T23:44:49.705Z,30.60
2017-10-20T23:47:17.352Z,27.07
2017-10-20T23:49:44.941Z,28.13
2017-10-20T23:52:12.558Z,27.83
2017-10-20T23:54:40.143Z,28.37
2017-10-20T23:57:07.733Z,26.87
2017-10-20T23:59:35.339Z,28.20
